Time;durP1;ratioP1;P1;durP2;ratioP2;P2;SDS_P1;SDS_P2;PMS_P1;PMS_P2;Temp;Humidity;BMP_temperature;BMP_pressure;BME280_temperature;BME280_humidity;BME280_pressure;Samples;Min_cycle;Max_cycle;Signal;HPM_P1;HPM_P2
2022/02/20 00:02:15;;;;;;;3.92;1.98;;;;;;;4.67;51.82;99797.02;1770929;79;20937;-73
2022/02/20 00:04:42;;;;;;;8.63;2.33;;;;;;;4.66;51.52;99793.20;1740661;82;20977;-73
2022/02/20 00:07:09;;;;;;;4.50;1.90;;;;;;;4.65;51.63;99802.83;1740287;81;21802;-73
2022/02/20 00:09:39;;;;;;;3.90;2.10;;;;;;;4.63;51.09;99795.52;1740863;82;20986;-73
2022/02/20 00:12:05;;;;;;;6.58;2.30;;;;;;;4.65;51.32;99798.06;1711675;82;21072;-73
2022/02/20 00:14:33;;;;;;;3.52;1.80;;;;;;;4.66;51.15;99803.20;1742800;81;20964;-73
2022/02/20 00:16:59;;;;;;;4.80;2.08;;;;;;;4.66;51.19;99798.44;1740922;82;21055;-73
2022/02/20 00:19:26;;;;;;;5.35;2.20;;;;;;;4.63;51.07;99802.06;1747343;81;21799;-73
2022/02/20 00:21:53;;;;;;;4.97;1.90;;;;;;;4.62;51.02;99800.86;1753150;81;20940;-72
2022/02/20 00:24:19;;;;;;;3.98;2.12;;;;;;;4.61;50.91;99803.95;1747430;79;20992;-73
2022/02/20 00:26:45;;;;;;;5.62;1.87;;;;;;;4.58;50.85;99795.83;1740965;81;21012;-73
2022/02/20 00:29:12;;;;;;;5.17;2.10;;;;;;;4.59;51.00;99809.28;1765938;81;21083;-72
2022/02/20 00:31:39;;;;;;;3.47;1.55;;;;;;;4.58;50.69;99803.68;1757994;80;21793;-73
2022/02/20 00:34:05;;;;;;;4.50;1.72;;;;;;;4.58;50.52;99814.14;1748625;81;21000;-73
2022/02/20 00:36:32;;;;;;;6.80;1.92;;;;;;;4.59;50.50;99809.28;1738929;81;20952;-72
2022/02/20 00:38:58;;;;;;;4.95;1.62;;;;;;;4.59;50.45;99810.59;1735681;81;21021;-73
2022/02/20 00:41:25;;;;;;;4.22;1.70;;;;;;;4.57;50.55;99803.78;1728289;82;21400;-72
2022/02/20 00:43:52;;;;;;;4.45;1.80;;;;;;;4.53;50.65;99813.58;1729769;81;21667;-72
2022/02/20 00:46:18;;;;;;;3.37;1.62;;;;;;;4.50;50.53;99821.62;1729147;81;21040;-71
2022/02/20 00:48:45;;;;;;;3.70;1.85;;;;;;;4.47;50.49;99812.68;1727859;81;21040;-72
2022/02/20 00:51:12;;;;;;;4.50;2.00;;;;;;;4.44;50.57;99822.03;1727811;83;20956;-73
2022/02/20 00:53:39;;;;;;;4.55;2.00;;;;;;;4.42;50.66;99823.88;1727823;81;21503;-72
2022/02/20 00:56:06;;;;;;;4.40;2.00;;;;;;;4.39;50.60;99818.85;1732090;81;22471;-72
2022/02/20 00:58:34;;;;;;;4.90;1.82;;;;;;;4.39;50.58;99826.70;1727753;82;20952;-71
2022/02/20 01:01:00;;;;;;;4.03;1.90;;;;;;;4.39;50.63;99825.86;1741745;81;20936;-73
2022/02/20 01:03:27;;;;;;;4.30;1.90;;;;;;;4.36;50.61;99832.59;1752227;80;21032;-72
2022/02/20 01:05:56;;;;;;;5.22;2.05;;;;;;;4.35;50.53;99836.98;1755344;80;20996;-73
2022/02/20 01:08:23;;;;;;;4.22;2.05;;;;;;;4.35;50.72;99834.37;1758211;81;21775;-73
2022/02/20 01:10:51;;;;;;;4.80;2.05;;;;;;;4.32;50.76;99841.08;1757955;80;20925;-73
2022/02/20 01:13:18;;;;;;;4.80;2.10;;;;;;;4.30;50.73;99845.57;1741499;81;20984;-73
2022/02/20 01:15:47;;;;;;;4.67;2.17;;;;;;;4.29;50.77;99846.51;1727919;83;20996;-73
2022/02/20 01:18:13;;;;;;;4.45;1.82;;;;;;;4.26;50.92;99841.02;1729972;81;20968;-72
2022/02/20 01:20:40;;;;;;;4.70;2.00;;;;;;;4.23;50.68;99842.95;1727831;83;22461;-73
2022/02/20 01:23:07;;;;;;;5.40;2.20;;;;;;;4.21;50.95;99841.75;1727785;83;21434;-73
2022/02/20 01:25:34;;;;;;;3.80;1.92;;;;;;;4.18;50.75;99845.86;1709918;82;21015;-73
2022/02/20 01:28:00;;;;;;;3.08;1.85;;;;;;;4.17;50.83;99849.42;1683925;82;20986;-73
2022/02/20 01:30:27;;;;;;;4.53;2.05;;;;;;;4.17;50.77;99859.88;1723317;82;21024;-72
2022/02/20 01:32:54;;;;;;;5.12;2.25;;;;;;;4.18;50.71;99852.87;1728903;81;21809;-72
2022/02/20 01:35:20;;;;;;;4.25;2.20;;;;;;;4.16;50.62;99862.12;1728632;83;20937;-72
2022/02/20 01:37:49;;;;;;;5.35;2.35;;;;;;;4.16;50.70;99865.20;1752512;80;21040;-73
2022/02/20 01:40:16;;;;;;;6.00;2.67;;;;;;;4.15;50.72;99868.72;1730339;81;21020;-73
2022/02/20 01:42:42;;;;;;;5.35;2.30;;;;;;;4.13;50.87;99868.81;1729355;82;20977;-73
2022/02/20 01:45:13;;;;;;;4.72;2.02;;;;;;;4.10;50.68;99874.70;1710745;84;22212;-73
2022/02/20 01:47:40;;;;;;;4.92;2.10;;;;;;;4.09;50.85;99879.09;1720329;82;21497;-73
2022/02/20 01:50:09;;;;;;;4.72;1.80;;;;;;;4.08;50.75;99889.18;1712630;82;21476;-73
2022/02/20 01:52:38;;;;;;;5.53;1.85;;;;;;;4.08;50.87;99891.80;1710691;84;21032;-74
2022/02/20 01:55:09;;;;;;;4.00;1.77;;;;;;;4.07;50.96;99886.66;1735598;82;20957;-73
2022/02/20 01:57:56;;;;;;;7.42;2.35;;;;;;;4.01;51.09;99897.84;1711282;80;21859;-72
2022/02/20 02:00:30;;;;;;;5.25;1.90;;;;;;;3.96;51.29;99897.30;1690493;83;21168;-72
2022/02/20 02:02:58;;;;;;;6.53;1.70;;;;;;;3.91;51.57;99901.94;1717136;82;21009;-73
2022/02/20 02:05:33;;;;;;;5.00;1.87;;;;;;;3.88;51.87;99904.74;1709783;82;21424;-73
2022/02/20 02:08:00;;;;;;;5.67;2.05;;;;;;;3.85;51.95;99899.68;1727645;82;21412;-73
2022/02/20 02:10:34;;;;;;;3.47;2.00;;;;;;;3.84;52.23;99903.23;1714066;82;22457;-74
2022/02/20 02:13:03;;;;;;;4.33;1.85;;;;;;;3.82;52.37;99902.48;1712384;82;21659;-73
2022/02/20 02:15:51;;;;;;;4.75;2.08;;;;;;;3.79;52.45;99901.37;1724295;82;21547;-73
2022/02/20 02:18:40;;;;;;;5.55;2.20;;;;;;;3.78;52.62;99904.08;1711304;80;21214;-73
2022/02/20 02:21:08;;;;;;;3.92;1.90;;;;;;;3.78;52.71;99902.77;1709743;82;21001;-72
2022/02/20 02:23:45;;;;;;;3.47;1.82;;;;;;;3.76;52.84;99905.44;1708327;83;21859;-72
2022/02/20 02:26:15;;;;;;;3.75;1.90;;;;;;;3.75;52.99;99903.77;1715468;82;20946;-73
2022/02/20 02:28:52;;;;;;;4.87;2.22;;;;;;;3.73;53.02;99906.94;1722323;82;20993;-73
2022/02/20 02:31:20;;;;;;;4.78;2.50;;;;;;;3.70;53.20;99904.05;1751832;81;21420;-73
2022/02/20 02:33:50;;;;;;;4.12;1.80;;;;;;;3.67;53.36;99902.93;1771556;80;20941;-73
2022/02/20 02:36:17;;;;;;;4.50;1.80;;;;;;;3.67;53.47;99912.54;1771579;81;22642;-72
2022/02/20 02:38:44;;;;;;;4.85;2.02;;;;;;;3.68;53.48;99915.53;1761708;81;20941;-72
2022/02/20 02:41:12;;;;;;;5.65;2.05;;;;;;;3.68;53.60;99916.83;1771315;81;20958;-73
2022/02/20 02:43:39;;;;;;;5.95;1.90;;;;;;;3.67;53.69;99922.98;1724234;81;21017;-72
2022/02/20 02:46:06;;;;;;;4.90;2.10;;;;;;;3.65;53.74;99928.27;1729014;80;21420;-72
2022/02/20 02:48:33;;;;;;;3.42;1.60;;;;;;;3.63;53.90;99932.75;1759796;80;21737;-73
2022/02/20 02:51:01;;;;;;;4.30;1.72;;;;;;;3.61;54.01;99935.92;1749659;82;21476;-72
2022/02/20 02:53:29;;;;;;;3.75;1.70;;;;;;;3.60;54.09;99938.63;1728488;83;20975;-72
2022/02/20 02:55:56;;;;;;;3.58;1.60;;;;;;;3.57;54.17;99931.81;1726236;82;21530;-73
2022/02/20 02:58:25;;;;;;;4.10;1.70;;;;;;;3.58;54.25;99935.27;1720154;83;20993;-72
2022/02/20 03:00:53;;;;;;;4.28;1.65;;;;;;;3.56;54.28;99936.64;1721180;80;21827;-72
2022/02/20 03:03:21;;;;;;;4.20;1.57;;;;;;;3.56;54.34;99942.33;1747264;82;21448;-72
2022/02/20 03:05:47;;;;;;;3.80;1.75;;;;;;;3.54;54.34;99929.36;1749960;82;21487;-72
2022/02/20 03:08:17;;;;;;;5.35;1.92;;;;;;;3.53;54.43;99932.91;1749717;82;21013;-72
2022/02/20 03:10:43;;;;;;;6.25;1.77;;;;;;;3.50;54.59;99936.17;1747902;82;20957;-73
2022/02/20 03:13:12;;;;;;;5.30;1.72;;;;;;;3.47;54.60;99924.11;1722117;82;22246;-73
2022/02/20 03:15:40;;;;;;;4.67;1.70;;;;;;;3.45;54.71;99925.50;1730680;82;20951;-73
2022/02/20 03:18:07;;;;;;;3.95;1.50;;;;;;;3.45;54.72;99919.45;1719947;83;21061;-73
2022/02/20 03:20:35;;;;;;;4.67;1.52;;;;;;;3.44;54.78;99934.73;1721665;82;21065;-73
2022/02/20 03:23:02;;;;;;;4.70;1.80;;;;;;;3.41;54.85;99934.45;1741185;82;21001;-73
2022/02/20 03:25:31;;;;;;;4.45;1.47;;;;;;;3.38;54.98;99937.72;1741845;80;21689;-72
2022/02/20 03:27:59;;;;;;;3.92;1.67;;;;;;;3.33;55.07;99932.73;1713166;81;21150;-72
2022/02/20 03:30:27;;;;;;;5.22;1.92;;;;;;;3.34;55.14;99942.71;1724082;83;21053;-72
2022/02/20 03:32:54;;;;;;;3.72;1.65;;;;;;;3.31;55.23;99952.03;1720804;82;20961;-72
2022/02/20 03:35:23;;;;;;;3.87;1.65;;;;;;;3.28;55.34;99954.36;1744886;82;20949;-73
2022/02/20 03:37:49;;;;;;;3.50;1.60;;;;;;;3.28;55.39;99958.70;1744894;82;21818;-72
2022/02/20 03:40:18;;;;;;;4.97;1.50;;;;;;;3.27;55.45;99956.56;1715976;82;21013;-72
2022/02/20 03:42:45;;;;;;;2.80;1.42;;;;;;;3.27;55.50;99955.26;1737291;82;21024;-73
2022/02/20 03:45:13;;;;;;;5.40;2.12;;;;;;;3.25;55.54;99953.20;1690878;82;20965;-72
2022/02/20 03:47:42;;;;;;;5.15;2.00;;;;;;;3.21;55.59;99954.31;1719833;82;21488;-73
2022/02/20 03:50:09;;;;;;;4.28;1.72;;;;;;;3.20;55.65;99967.45;1734000;80;22646;-73
2022/02/20 03:52:41;;;;;;;4.08;1.82;;;;;;;3.19;55.78;99970.99;1722080;80;21484;-72
2022/02/20 03:55:09;;;;;;;5.83;1.90;;;;;;;3.18;55.88;99976.64;1727976;82;20996;-72
2022/02/20 03:57:39;;;;;;;4.25;2.20;;;;;;;3.16;55.91;99969.38;1744947;82;21036;-72
2022/02/20 04:00:20;;;;;;;3.92;2.10;;;;;;;3.15;55.95;99966.38;1745230;82;20942;-72
2022/02/20 04:02:50;;;;;;;5.00;2.22;;;;;;;3.14;55.95;99962.09;1733985;82;22224;-72
2022/02/20 04:05:18;;;;;;;4.37;2.30;;;;;;;3.14;55.97;99962.09;1715016;83;20993;-72
2022/02/20 04:07:45;;;;;;;5.10;2.25;;;;;;;3.15;55.97;99962.47;1715218;83;21025;-73
2022/02/20 04:10:12;;;;;;;4.45;2.27;;;;;;;3.13;56.03;99959.95;1736587;82;21601;-72
2022/02/20 04:12:40;;;;;;;4.03;1.72;;;;;;;3.11;56.10;99960.51;1744877;82;21009;-72
2022/02/20 04:15:10;;;;;;;6.08;2.30;;;;;;;3.09;56.12;99959.76;1742591;82;22531;-72
2022/02/20 04:17:48;;;;;;;4.65;1.92;;;;;;;3.08;56.22;99963.73;1744811;82;21432;-74
2022/02/20 04:20:17;;;;;;;4.30;1.75;;;;;;;3.07;56.21;99961.58;1717917;82;20973;-72
2022/02/20 04:22:44;;;;;;;5.78;2.00;;;;;;;3.06;56.22;99963.81;1715224;83;20966;-73
2022/02/20 04:25:12;;;;;;;3.98;1.77;;;;;;;3.05;56.28;99962.60;1727184;82;20949;-73
2022/02/20 04:27:40;;;;;;;7.00;2.95;;;;;;;3.04;56.28;99968.75;1732821;81;22888;-73
2022/02/20 04:30:08;;;;;;;6.50;2.90;;;;;;;3.03;56.40;99970.98;1744581;81;21124;-72
2022/02/20 04:32:36;;;;;;;7.22;2.90;;;;;;;3.01;56.40;99975.45;1739360;82;21057;-72
2022/02/20 04:35:05;;;;;;;9.55;4.03;;;;;;;3.00;56.44;99973.77;1736907;81;21055;-72
2022/02/20 04:37:33;;;;;;;19.90;7.95;;;;;;;2.99;56.47;99976.84;1731220;82;20953;-72
2022/02/20 04:40:04;;;;;;;26.55;9.08;;;;;;;2.98;56.48;99976.44;1739347;82;21839;-72
2022/02/20 04:42:32;;;;;;;31.87;10.68;;;;;;;2.98;56.56;99982.11;1733932;82;21400;-73
2022/02/20 04:45:07;;;;;;;36.33;11.80;;;;;;;2.96;56.59;99983.97;1739011;82;21057;-73
2022/02/20 04:47:36;;;;;;;26.87;9.48;;;;;;;2.94;56.66;99987.13;1720067;80;21599;-73
2022/02/20 04:50:03;;;;;;;14.60;6.00;;;;;;;2.90;56.76;99990.38;1709865;84;20909;-73
2022/02/20 04:52:37;;;;;;;11.08;4.83;;;;;;;2.87;56.77;99999.19;1710661;80;21921;-73
2022/02/20 04:55:22;;;;;;;9.25;3.87;;;;;;;2.86;56.87;99997.97;1710891;81;21071;-72
2022/02/20 04:57:50;;;;;;;6.42;3.58;;;;;;;2.84;56.94;100005.89;1729386;80;21428;-72
2022/02/20 05:00:19;;;;;;;8.35;3.45;;;;;;;2.86;56.95;100014.93;1720827;81;20997;-73
2022/02/20 05:02:57;;;;;;;8.45;3.45;;;;;;;2.85;57.01;100010.17;1657171;85;21024;-72
2022/02/20 05:05:25;;;;;;;6.80;3.27;;;;;;;2.84;57.04;100011.10;1709791;84;22305;-73
2022/02/20 05:07:53;;;;;;;5.15;3.10;;;;;;;2.82;57.07;100007.73;1709735;82;21183;-73
2022/02/20 05:10:19;;;;;;;8.18;3.40;;;;;;;2.82;57.10;100006.44;1690528;82;21013;-73
2022/02/20 05:12:46;;;;;;;5.65;3.40;;;;;;;2.81;57.23;100003.45;1719042;80;21084;-73
2022/02/20 05:15:13;;;;;;;7.00;2.85;;;;;;;2.79;57.26;100005.27;1731377;82;20945;-73
2022/02/20 05:17:43;;;;;;;4.90;2.80;;;;;;;2.80;57.33;100013.51;1737239;82;22250;-73
2022/02/20 05:20:12;;;;;;;9.58;3.80;;;;;;;2.80;57.34;100021.80;1726087;82;21469;-72
2022/02/20 05:22:39;;;;;;;7.87;3.58;;;;;;;2.82;57.37;100022.55;1709925;84;21025;-73
2022/02/20 05:25:07;;;;;;;12.45;4.15;;;;;;;2.81;57.44;100025.62;1710061;83;21471;-72
2022/02/20 05:27:36;;;;;;;9.48;3.40;;;;;;;2.82;57.48;100038.20;1714616;82;21034;-72
2022/02/20 05:30:06;;;;;;;10.80;4.45;;;;;;;2.82;57.54;100035.59;1737076;82;21773;-73
2022/02/20 05:32:33;;;;;;;12.10;5.20;;;;;;;2.82;57.59;100039.50;1723043;80;20942;-73
2022/02/20 05:35:10;;;;;;;9.60;4.70;;;;;;;2.83;57.63;100040.72;1714512;83;20966;-73
2022/02/20 05:37:47;;;;;;;8.33;3.55;;;;;;;2.86;57.70;100036.63;1715190;83;21027;-72
2022/02/20 05:40:17;;;;;;;8.43;3.42;;;;;;;2.88;57.73;100043.07;1736778;82;20943;-73
2022/02/20 05:42:54;;;;;;;9.43;4.03;;;;;;;2.91;57.82;100040.32;1740323;82;22624;-73
2022/02/20 05:45:21;;;;;;;8.60;4.00;;;;;;;2.96;57.78;100055.25;1730398;82;21529;-73
2022/02/20 05:47:48;;;;;;;8.10;3.30;;;;;;;2.99;57.76;100047.71;1731048;80;21013;-72
2022/02/20 05:50:15;;;;;;;6.60;3.37;;;;;;;3.03;57.77;100042.27;1742003;80;20957;-73
2022/02/20 05:52:45;;;;;;;8.95;3.05;;;;;;;3.07;57.73;100048.16;1750542;81;21401;-73
2022/02/20 05:55:12;;;;;;;6.45;3.30;;;;;;;3.11;57.65;100058.83;1750442;81;22479;-73
2022/02/20 05:57:45;;;;;;;6.50;2.87;;;;;;;3.16;57.64;100051.57;1731674;82;21009;-73
2022/02/20 06:00:17;;;;;;;6.70;2.92;;;;;;;3.20;57.59;100066.16;1748338;81;21432;-72
2022/02/20 06:02:56;;;;;;;5.17;2.42;;;;;;;3.24;57.55;100067.66;1729382;80;22237;-72
2022/02/20 06:05:24;;;;;;;6.92;2.58;;;;;;;3.29;57.40;100071.34;1736757;81;21418;-74
2022/02/20 06:07:55;;;;;;;6.42;3.02;;;;;;;3.34;57.38;100075.84;1662443;84;21760;-72
2022/02/20 06:10:24;;;;;;;5.00;2.60;;;;;;;3.39;57.31;100073.38;1709865;82;21024;-74
2022/02/20 06:12:58;;;;;;;7.15;3.22;;;;;;;3.45;57.24;100076.09;1720319;82;20974;-73
2022/02/20 06:15:39;;;;;;;8.38;3.05;;;;;;;3.52;57.06;100070.08;1747088;82;21098;-73
2022/02/20 06:18:14;;;;;;;5.58;2.58;;;;;;;3.58;57.10;100081.04;1731815;81;20987;-73
2022/02/20 06:20:59;;;;;;;7.42;3.45;;;;;;;3.64;56.94;100082.45;1666901;84;21861;-73
2022/02/20 06:23:36;;;;;;;6.35;2.67;;;;;;;3.68;56.87;100087.44;1717744;82;21045;-72
2022/02/20 06:26:19;;;;;;;6.15;2.90;;;;;;;3.74;56.60;100087.08;1640915;86;21563;-73
2022/02/20 06:28:47;;;;;;;5.40;2.42;;;;;;;3.81;56.51;100085.44;1700369;83;21053;-73
2022/02/20 06:31:16;;;;;;;6.42;2.27;;;;;;;3.85;56.44;100096.92;1717680;80;21440;-73
2022/02/20 06:33:47;;;;;;;6.60;2.90;;;;;;;3.91;56.24;100100.97;1718344;82;21795;-73
2022/02/20 06:36:12;;;;;;;8.43;2.52;;;;;;;3.96;56.11;100096.34;1730385;80;21130;-73
2022/02/20 06:38:42;;;;;;;7.03;3.02;;;;;;;4.02;55.92;100100.73;1742139;82;21021;-73
2022/02/20 06:41:10;;;;;;;6.08;2.85;;;;;;;4.10;55.94;100108.15;1739950;82;21016;-74
2022/02/20 06:43:42;;;;;;;5.65;2.40;;;;;;;4.14;55.67;100095.27;1726704;82;21052;-73
2022/02/20 06:46:16;;;;;;;5.67;2.60;;;;;;;4.21;55.68;100102.31;1738260;82;21840;-73
2022/02/20 06:48:47;;;;;;;4.60;2.37;;;;;;;4.25;55.44;100097.30;1713298;83;21551;-73
2022/02/20 06:51:24;;;;;;;4.47;1.87;;;;;;;4.31;55.32;100102.16;1721051;82;21009;-74
2022/02/20 06:54:10;;;;;;;5.90;2.98;;;;;;;4.36;54.96;100097.52;1720831;82;21081;-73
2022/02/20 06:56:56;;;;;;;5.15;3.10;;;;;;;4.40;54.74;100099.01;1717266;82;20957;-73
2022/02/20 06:59:24;;;;;;;7.35;2.52;;;;;;;4.44;54.78;100107.06;1714842;83;21840;-74
2022/02/20 07:01:54;;;;;;;6.40;2.55;;;;;;;4.48;54.50;100107.25;1722543;82;20961;-74
2022/02/20 07:04:21;;;;;;;6.12;2.52;;;;;;;4.52;54.60;100108.74;1731887;82;20998;-74
2022/02/20 07:06:47;;;;;;;5.50;2.42;;;;;;;4.58;54.73;100107.09;1729523;81;21036;-73
2022/02/20 07:09:14;;;;;;;5.42;2.72;;;;;;;4.66;54.66;100116.27;1716823;82;21376;-73
2022/02/20 07:11:41;;;;;;;7.12;2.30;;;;;;;4.72;54.30;100114.57;1721157;82;21913;-74
2022/02/20 07:14:10;;;;;;;8.78;2.40;;;;;;;4.78;54.34;100116.37;1736502;82;21005;-74
2022/02/20 07:16:36;;;;;;;8.20;2.33;;;;;;;4.85;54.10;100122.09;1740114;81;21051;-74
2022/02/20 07:19:03;;;;;;;4.58;2.30;;;;;;;4.88;53.68;100113.58;1760755;81;20953;-73
2022/02/20 07:21:30;;;;;;;5.03;2.47;;;;;;;4.87;53.67;100118.44;1764045;80;20973;-73
2022/02/20 07:23:58;;;;;;;6.60;2.25;;;;;;;4.92;53.66;100119.92;1755868;81;21828;-74
2022/02/20 07:26:31;;;;;;;7.10;2.70;;;;;;;4.98;53.50;100119.56;1742662;81;20985;-74
2022/02/20 07:28:57;;;;;;;7.30;2.20;;;;;;;5.02;53.51;100123.67;1761115;80;21061;-73
2022/02/20 07:31:26;;;;;;;4.80;2.00;;;;;;;5.06;53.42;100120.79;1748971;80;21028;-73
2022/02/20 07:33:55;;;;;;;5.62;2.30;;;;;;;5.10;53.33;100118.81;1749738;81;21565;-74
2022/02/20 07:36:22;;;;;;;7.67;2.80;;;;;;;5.14;53.16;100122.48;1743546;81;21811;-73
2022/02/20 07:38:49;;;;;;;7.08;2.98;;;;;;;5.18;53.26;100120.50;1741140;80;21005;-74
2022/02/20 07:41:16;;;;;;;5.53;2.47;;;;;;;5.23;53.07;100121.08;1747064;80;20957;-74
2022/02/20 07:43:44;;;;;;;5.33;2.10;;;;;;;5.27;53.02;100119.10;1749892;81;21221;-73
2022/02/20 07:46:11;;;;;;;5.85;2.00;;;;;;;5.31;53.00;100130.62;1755261;80;21024;-73
2022/02/20 07:48:40;;;;;;;5.83;2.27;;;;;;;5.32;52.40;100124.44;1735460;81;21901;-74
2022/02/20 07:51:07;;;;;;;4.05;2.40;;;;;;;5.31;52.71;100133.23;1744113;81;21031;-73
2022/02/20 07:53:36;;;;;;;6.05;2.60;;;;;;;5.33;52.65;100123.97;1748295;80;21380;-74
2022/02/20 07:56:03;;;;;;;6.03;2.33;;;;;;;5.34;52.40;100129.11;1743862;80;21450;-74
2022/02/20 07:58:31;;;;;;;5.28;1.80;;;;;;;5.36;52.59;100131.63;1707698;81;21016;-74
2022/02/20 08:01:00;;;;;;;7.35;2.30;;;;;;;5.37;52.45;100120.22;1713329;81;21843;-74
2022/02/20 08:03:27;;;;;;;5.60;1.87;;;;;;;5.40;52.23;100133.11;1709216;83;21036;-74
2022/02/20 08:05:55;;;;;;;5.58;2.25;;;;;;;5.41;52.29;100126.50;1727605;82;20961;-74
2022/02/20 08:08:21;;;;;;;5.60;2.20;;;;;;;5.48;52.30;100124.78;1753543;81;20937;-74
2022/02/20 08:10:48;;;;;;;5.55;2.25;;;;;;;5.57;52.20;100125.52;1728964;82;21015;-75
2022/02/20 08:13:16;;;;;;;7.40;2.60;;;;;;;5.58;51.76;100128.05;1696579;82;22708;-74
2022/02/20 08:15:43;;;;;;;4.25;2.20;;;;;;;5.62;52.29;100131.33;1721986;82;20946;-74
2022/02/20 08:18:11;;;;;;;5.47;2.08;;;;;;;5.71;52.33;100115.03;1725995;82;21033;-75
2022/02/20 08:20:39;;;;;;;6.15;2.27;;;;;;;5.80;51.86;100122.31;1723307;82;21024;-74
2022/02/20 08:23:08;;;;;;;4.03;2.00;;;;;;;5.83;51.69;100117.33;1730550;80;21052;-74
2022/02/20 08:25:37;;;;;;;5.50;2.12;;;;;;;5.86;51.66;100124.99;1737091;82;21851;-74
2022/02/20 08:28:04;;;;;;;4.75;2.15;;;;;;;5.88;51.51;100129.19;1732639;82;21021;-74
2022/02/20 08:30:31;;;;;;;6.03;2.50;;;;;;;5.96;51.72;100119.56;1727200;82;20997;-74
2022/02/20 08:32:58;;;;;;;5.17;2.20;;;;;;;6.02;51.12;100117.39;1725763;82;20989;-74
2022/02/20 08:35:24;;;;;;;4.50;2.12;;;;;;;6.03;50.79;100105.13;1737542;82;20946;-74
2022/02/20 08:37:51;;;;;;;3.95;2.00;;;;;;;6.04;51.24;100105.49;1736345;80;21802;-74
2022/02/20 08:40:18;;;;;;;6.83;2.40;;;;;;;6.12;51.00;100110.25;1727631;82;20993;-74
2022/02/20 08:42:46;;;;;;;6.50;2.45;;;;;;;6.14;50.96;100107.05;1719750;82;21455;-74
2022/02/20 08:45:16;;;;;;;4.33;2.33;;;;;;;6.19;50.89;100111.06;1739293;81;20989;-75
2022/02/20 08:47:44;;;;;;;4.17;1.90;;;;;;;6.21;51.11;100110.48;1733347;82;21472;-74
2022/02/20 08:50:12;;;;;;;4.67;2.02;;;;;;;6.30;50.72;100116.91;1724868;82;22880;-74
2022/02/20 08:52:40;;;;;;;4.25;1.98;;;;;;;6.34;50.51;100115.76;1719808;82;21041;-75
2022/02/20 08:55:07;;;;;;;8.78;3.45;;;;;;;6.41;50.67;100118.83;1724776;82;21570;-74
2022/02/20 08:57:35;;;;;;;6.25;2.00;;;;;;;6.45;50.63;100114.57;1713745;82;21482;-74
2022/02/20 09:00:02;;;;;;;6.25;2.62;;;;;;;6.46;49.82;100108.85;1721441;82;21010;-75
2022/02/20 09:02:28;;;;;;;6.15;1.92;;;;;;;6.46;50.24;100109.69;1715669;82;21830;-74
2022/02/20 09:04:55;;;;;;;4.62;1.95;;;;;;;6.50;50.37;100107.25;1737172;81;21445;-74
2022/02/20 09:07:22;;;;;;;5.92;2.08;;;;;;;6.58;50.14;100110.67;1725646;82;21368;-74
2022/02/20 09:09:48;;;;;;;5.45;2.40;;;;;;;6.65;50.42;100111.92;1722156;82;21672;-73
2022/02/20 09:12:16;;;;;;;4.10;2.20;;;;;;;6.71;49.55;100106.27;1710109;82;21052;-72
2022/02/20 09:14:43;;;;;;;5.45;2.17;;;;;;;6.70;50.10;100109.84;1709845;84;21785;-72
2022/02/20 09:17:11;;;;;;;4.55;1.95;;;;;;;6.82;49.58;100119.98;1732752;82;20981;-73
2022/02/20 09:19:38;;;;;;;5.45;2.17;;;;;;;6.83;48.98;100118.56;1717133;82;21057;-72
2022/02/20 09:22:04;;;;;;;4.67;1.92;;;;;;;6.81;49.74;100125.70;1739411;82;21028;-73
2022/02/20 09:24:30;;;;;;;6.17;2.00;;;;;;;6.90;49.41;100120.30;1720724;81;21014;-72
2022/02/20 09:26:57;;;;;;;4.62;1.85;;;;;;;6.96;49.59;100130.88;1721568;82;21800;-73
2022/02/20 09:29:25;;;;;;;6.35;2.30;;;;;;;7.01;48.90;100116.47;1733461;82;20962;-74
2022/02/20 09:31:52;;;;;;;6.08;2.72;;;;;;;7.01;48.99;100113.84;1739124;81;21111;-72
2022/02/20 09:34:20;;;;;;;5.37;2.12;;;;;;;7.08;49.20;100120.83;1710519;82;20997;-73
2022/02/20 09:36:47;;;;;;;4.92;2.10;;;;;;;7.16;49.02;100126.41;1709898;82;21017;-72
2022/02/20 09:39:14;;;;;;;4.20;2.20;;;;;;;7.22;48.34;100122.02;1709789;84;22201;-74
2022/02/20 09:41:42;;;;;;;4.90;2.02;;;;;;;7.22;48.32;100117.24;1709867;82;21470;-77
2022/02/20 09:44:09;;;;;;;4.67;1.77;;;;;;;7.28;48.55;100111.09;1690947;83;21021;-76
2022/02/20 09:46:39;;;;;;;3.42;1.77;;;;;;;7.43;48.48;100110.03;1711556;82;21013;-75
2022/02/20 09:49:06;;;;;;;4.60;1.80;;;;;;;7.53;47.87;100106.72;1689950;84;20958;-76
2022/02/20 09:51:33;;;;;;;5.33;1.95;;;;;;;7.61;48.21;100095.20;1710330;84;22468;-78
2022/02/20 09:54:00;;;;;;;9.65;2.17;;;;;;;7.75;47.80;100108.20;1710387;82;21009;-76
2022/02/20 09:56:27;;;;;;;4.87;2.10;;;;;;;7.84;47.07;100100.97;1717187;82;21044;-80
2022/02/20 09:58:55;;;;;;;4.08;1.72;;;;;;;7.94;46.74;100103.30;1710205;84;20958;-78
2022/02/20 10:01:21;;;;;;;6.35;2.30;;;;;;;8.00;46.68;100098.89;1738821;82;21009;-73
2022/02/20 10:03:49;;;;;;;4.58;2.00;;;;;;;8.09;46.65;100091.28;1727450;82;22214;-73
2022/02/20 10:06:21;;;;;;;3.52;1.87;;;;;;;8.22;47.00;100102.11;1724085;80;21555;-75
2022/02/20 10:08:52;;;;;;;5.80;1.90;;;;;;;8.35;46.01;100084.13;1723192;82;21024;-75
2022/02/20 10:11:28;;;;;;;3.52;1.65;;;;;;;8.45;46.63;100091.22;1708740;82;21119;-74
2022/02/20 10:14:15;;;;;;;5.42;1.95;;;;;;;8.63;45.56;100075.83;1716778;82;21071;-75
2022/02/20 10:16:44;;;;;;;4.72;1.95;;;;;;;8.73;45.54;100078.59;1737334;82;21467;-75
2022/02/20 10:19:25;;;;;;;4.40;2.05;;;;;;;8.83;43.86;100076.45;1735070;81;21110;-74
2022/02/20 10:22:11;;;;;;;4.30;2.08;;;;;;;8.82;44.33;100072.62;1738118;81;21409;-75
2022/02/20 10:24:49;;;;;;;4.62;1.72;;;;;;;8.79;44.78;100067.13;1700085;82;21417;-76
2022/02/20 10:27:38;;;;;;;7.78;2.12;;;;;;;8.86;44.59;100074.06;1714904;82;21119;-73
2022/02/20 10:30:28;;;;;;;5.37;1.60;;;;;;;8.92;44.60;100070.96;1722364;82;21839;-74
2022/02/20 10:33:22;;;;;;;5.47;2.17;;;;;;;9.03;43.40;100072.28;1726985;81;21063;-75
2022/02/20 10:35:51;;;;;;;4.20;1.70;;;;;;;9.08;44.12;100071.45;1731629;82;21040;-75
2022/02/20 10:38:23;;;;;;;3.85;1.60;;;;;;;9.11;43.54;100060.67;1751296;81;21278;-75
2022/02/20 10:40:56;;;;;;;4.45;1.82;;;;;;;9.27;43.76;100076.61;1747282;81;21027;-75
2022/02/20 10:43:27;;;;;;;5.70;2.10;;;;;;;9.32;43.08;100065.21;1740174;82;21838;-75
2022/02/20 10:46:20;;;;;;;5.08;1.70;;;;;;;9.35;42.73;100055.73;1730050;81;21083;-75
2022/02/20 10:48:48;;;;;;;4.65;1.95;;;;;;;9.43;42.93;100048.89;1737226;81;21008;-75
2022/02/20 10:51:17;;;;;;;5.40;2.27;;;;;;;9.54;42.67;100040.60;1731813;81;21371;-75
2022/02/20 10:53:46;;;;;;;5.17;2.20;;;;;;;9.64;42.45;100038.41;1741222;82;21017;-75
2022/02/20 10:56:12;;;;;;;3.67;1.60;;;;;;;9.61;41.53;100034.72;1758725;81;22534;-72
2022/02/20 10:58:47;;;;;;;6.05;2.30;;;;;;;9.59;41.07;100034.02;1745454;80;20977;-73
2022/02/20 11:01:25;;;;;;;3.75;1.07;;;;;;;9.55;41.64;100027.30;1771181;81;21368;-72
2022/02/20 11:03:56;;;;;;;4.80;1.70;;;;;;;9.61;41.42;100028.13;1743439;81;20957;-75
2022/02/20 11:06:23;;;;;;;7.45;1.60;;;;;;;9.67;41.33;100038.19;1748898;80;21032;-73
2022/02/20 11:08:50;;;;;;;4.45;1.80;;;;;;;9.70;40.96;100023.42;1745243;81;21801;-73
2022/02/20 11:14:14;;;;;;;4.70;1.55;;;;;;;9.71;41.14;100022.95;1746626;81;21468;-75
2022/02/20 11:16:48;;;;;;;5.42;2.10;;;;;;;9.82;41.21;100010.20;1744672;81;21721;-76
2022/02/20 11:19:24;;;;;;;5.00;2.22;;;;;;;9.95;41.70;100009.08;1707693;83;20964;-76
2022/02/20 11:22:00;;;;;;;7.10;2.90;;;;;;;10.16;40.78;100022.29;1737848;81;22277;-75
2022/02/20 11:24:28;;;;;;;4.10;1.90;;;;;;;10.24;40.57;100017.73;1732467;81;21076;-75
2022/02/20 11:26:55;;;;;;;3.27;1.70;;;;;;;10.30;40.12;100018.03;1734228;81;20969;-75
2022/02/20 11:29:22;;;;;;;3.77;1.35;;;;;;;10.31;39.65;100009.14;1733905;81;20961;-75
2022/02/20 11:31:49;;;;;;;4.12;1.62;;;;;;;10.27;39.34;100005.59;1762262;80;20984;-75
2022/02/20 11:34:16;;;;;;;3.47;1.50;;;;;;;10.15;38.85;99994.72;1739673;79;22804;-75
2022/02/20 11:36:55;;;;;;;3.95;1.57;;;;;;;9.98;39.13;100000.06;1713399;81;21348;-75
2022/02/20 11:39:21;;;;;;;3.00;1.30;;;;;;;9.96;39.35;100000.68;1748118;81;21001;-74
2022/02/20 11:42:10;;;;;;;2.80;1.47;;;;;;;10.07;38.82;100001.94;1735346;81;21254;-76
2022/02/20 11:44:53;;;;;;;4.42;1.67;;;;;;;10.20;38.99;100003.91;1741030;82;21056;-75
2022/02/20 11:47:43;;;;;;;3.85;1.70;;;;;;;10.49;39.85;99998.84;1741183;82;22625;-75
2022/02/20 11:50:21;;;;;;;4.85;1.87;;;;;;;10.79;39.46;99996.69;1741586;80;20989;-75
2022/02/20 11:52:51;;;;;;;3.80;1.62;;;;;;;10.94;38.63;99997.67;1732782;81;21039;-75